createdAt,value
2022-10-26T00:01:09.182Z,11.00
2022-10-26T00:03:36.827Z,11.00
2022-10-26T00:06:05.387Z,11.00
2022-10-26T00:08:32.280Z,11.00
2022-10-26T00:10:59.209Z,11.00
2022-10-26T00:13:26.373Z,11.00
2022-10-26T00:15:53.348Z,11.00
2022-10-26T00:18:20.345Z,11.00
2022-10-26T00:20:47.243Z,11.00
2022-10-26T00:23:14.397Z,11.00
2022-10-26T00:25:41.287Z,11.00
2022-10-26T00:28:08.210Z,11.00
2022-10-26T00:30:35.696Z,11.00
2022-10-26T00:33:02.608Z,11.00
2022-10-26T00:35:44.909Z,11.00
2022-10-26T00:38:12.684Z,11.00
2022-10-26T00:40:39.587Z,10.90
2022-10-26T00:43:13.650Z,10.90
2022-10-26T00:45:40.730Z,10.90
2022-10-26T00:48:12.248Z,10.90
2022-10-26T00:50:41.027Z,10.90
2022-10-26T00:53:08.405Z,10.90
2022-10-26T00:55:38.008Z,10.90
2022-10-26T00:58:06.050Z,10.90
2022-10-26T01:00:33.118Z,10.90
2022-10-26T01:03:03.003Z,10.90
2022-10-26T01:05:30.817Z,10.90
2022-10-26T01:07:57.989Z,10.90
2022-10-26T01:10:28.306Z,10.90
2022-10-26T01:12:55.892Z,10.90
2022-10-26T01:15:24.977Z,10.90
2022-10-26T01:17:55.333Z,10.90
2022-10-26T01:20:40.508Z,10.90
2022-10-26T01:23:30.734Z,10.90
2022-10-26T01:26:36.109Z,10.90
2022-10-26T01:29:12.606Z,10.90
2022-10-26T01:31:42.598Z,11.00
2022-10-26T01:34:14.692Z,11.00
2022-10-26T01:36:44.481Z,11.00
2022-10-26T01:39:15.793Z,11.00
2022-10-26T01:41:46.523Z,11.00
2022-10-26T01:44:31.446Z,11.00
2022-10-26T01:47:01.780Z,11.00
2022-10-26T01:49:30.392Z,11.00
2022-10-26T01:51:57.464Z,11.10
2022-10-26T01:54:24.447Z,11.10
2022-10-26T01:56:53.426Z,11.10
2022-10-26T01:59:35.783Z,11.10
2022-10-26T02:02:11.692Z,11.10
2022-10-26T02:04:41.415Z,11.10
2022-10-26T02:07:17.915Z,11.00
2022-10-26T02:09:55.006Z,11.00
2022-10-26T02:12:29.313Z,11.00
2022-10-26T02:15:00.243Z,11.00
2022-10-26T02:17:34.842Z,11.00
2022-10-26T02:20:08.506Z,11.10
2022-10-26T02:22:38.115Z,11.10
2022-10-26T02:25:07.932Z,11.10
2022-10-26T02:27:37.031Z,11.10
2022-10-26T02:30:05.202Z,11.10
2022-10-26T02:32:34.131Z,11.10
2022-10-26T02:35:02.943Z,11.00
2022-10-26T02:37:30.386Z,11.00
2022-10-26T02:39:58.031Z,11.10
2022-10-26T02:42:25.298Z,11.10
2022-10-26T02:44:54.769Z,11.10
2022-10-26T02:47:22.511Z,11.10
2022-10-26T02:49:49.615Z,11.10
2022-10-26T02:52:22.790Z,11.20
2022-10-26T02:55:01.667Z,11.20
2022-10-26T02:57:42.023Z,11.30
2022-10-26T03:02:46.140Z,11.30
2022-10-26T03:05:23.619Z,11.30
2022-10-26T03:07:50.689Z,11.30
2022-10-26T03:10:17.670Z,11.40
2022-10-26T03:12:44.604Z,11.40
2022-10-26T03:15:11.582Z,11.40
2022-10-26T03:17:38.833Z,11.30
2022-10-26T03:20:06.222Z,11.30
2022-10-26T03:22:33.184Z,11.30
2022-10-26T03:25:00.147Z,11.30
2022-10-26T03:27:27.341Z,11.30
2022-10-26T03:29:54.441Z,11.40
2022-10-26T03:32:21.386Z,11.40
2022-10-26T03:34:48.411Z,11.40
2022-10-26T03:37:15.526Z,11.40
2022-10-26T03:39:42.609Z,11.40
2022-10-26T03:42:09.613Z,11.40
2022-10-26T03:44:36.553Z,11.40
2022-10-26T03:47:03.701Z,11.40
2022-10-26T03:49:30.611Z,11.40
2022-10-26T03:51:57.564Z,11.40
2022-10-26T03:54:25.174Z,11.40
2022-10-26T03:56:55.214Z,11.40
2022-10-26T03:59:22.507Z,11.40
2022-10-26T04:01:52.736Z,11.50
2022-10-26T04:04:22.678Z,11.50
2022-10-26T04:06:49.600Z,11.50
2022-10-26T04:09:16.591Z,11.50
2022-10-26T04:11:43.611Z,11.50
2022-10-26T04:14:10.724Z,11.60
2022-10-26T04:16:42.174Z,11.60
2022-10-26T04:19:09.240Z,11.60
2022-10-26T04:21:36.176Z,11.50
2022-10-26T04:24:03.394Z,11.60
2022-10-26T04:26:30.330Z,11.60
2022-10-26T04:28:57.482Z,11.60
2022-10-26T04:31:24.437Z,11.60
2022-10-26T04:33:51.561Z,11.60
2022-10-26T04:36:18.483Z,11.60
2022-10-26T04:38:45.361Z,11.60
2022-10-26T04:41:12.269Z,11.60
2022-10-26T04:43:39.190Z,11.60
2022-10-26T04:46:06.304Z,11.60
2022-10-26T04:48:33.200Z,11.60
2022-10-26T04:51:00.287Z,11.60
2022-10-26T04:53:27.779Z,11.60
2022-10-26T04:55:58.495Z,11.60
2022-10-26T04:58:25.652Z,11.60
2022-10-26T05:00:52.605Z,11.60
2022-10-26T05:03:19.784Z,11.60
2022-10-26T05:05:47.913Z,11.60
2022-10-26T05:08:15.150Z,11.60
2022-10-26T05:10:42.657Z,11.60
2022-10-26T05:13:09.600Z,11.70
2022-10-26T05:15:36.609Z,11.70
2022-10-26T05:18:05.639Z,11.70
2022-10-26T05:20:33.735Z,11.70
2022-10-26T05:23:01.811Z,11.70
2022-10-26T05:25:30.004Z,11.70
2022-10-26T05:28:00.381Z,11.70
2022-10-26T05:30:27.861Z,11.60
2022-10-26T05:32:58.520Z,11.60
2022-10-26T05:35:26.214Z,11.60
2022-10-26T05:37:53.851Z,11.60
2022-10-26T05:40:22.011Z,11.60
2022-10-26T05:42:49.226Z,11.60
2022-10-26T05:45:18.214Z,11.60
2022-10-26T05:47:45.509Z,11.50
2022-10-26T05:50:12.949Z,11.50
2022-10-26T05:52:40.693Z,11.50
2022-10-26T05:55:12.387Z,11.50
2022-10-26T05:57:39.810Z,11.60
2022-10-26T06:00:07.943Z,11.60
2022-10-26T06:02:48.620Z,11.60
2022-10-26T06:05:19.111Z,11.60
2022-10-26T06:07:46.323Z,11.70
2022-10-26T06:10:16.315Z,11.70
2022-10-26T06:12:43.657Z,11.80
2022-10-26T06:15:14.936Z,11.80
2022-10-26T06:17:44.685Z,11.90
2022-10-26T06:20:14.673Z,11.90
2022-10-26T06:22:53.377Z,11.90
2022-10-26T06:25:28.235Z,11.90
2022-10-26T06:28:14.142Z,12.00
2022-10-26T06:30:41.591Z,12.00
2022-10-26T06:33:24.742Z,12.00
2022-10-26T06:35:55.740Z,12.00
2022-10-26T06:38:23.529Z,12.00
2022-10-26T06:40:52.220Z,12.00
2022-10-26T06:43:26.535Z,12.00
2022-10-26T06:45:59.674Z,12.00
2022-10-26T06:48:28.569Z,11.90
2022-10-26T06:50:55.609Z,11.90
2022-10-26T06:53:37.395Z,11.90
2022-10-26T06:56:04.617Z,11.90
2022-10-26T06:58:35.005Z,11.90
2022-10-26T07:01:02.187Z,11.90
2022-10-26T07:03:29.384Z,11.90
2022-10-26T07:05:56.587Z,11.80
2022-10-26T07:08:23.569Z,11.80
2022-10-26T07:10:50.696Z,11.80
2022-10-26T07:13:17.722Z,11.80
2022-10-26T07:15:45.278Z,11.80
2022-10-26T07:18:12.204Z,11.80
2022-10-26T07:20:39.907Z,11.90
2022-10-26T07:23:07.677Z,12.00
2022-10-26T07:25:35.079Z,12.00
2022-10-26T07:28:02.053Z,12.10
2022-10-26T07:30:29.430Z,12.10
2022-10-26T07:33:14.778Z,12.10
2022-10-26T07:35:41.909Z,12.10
2022-10-26T07:38:09.032Z,12.10
2022-10-26T07:40:36.508Z,12.10
2022-10-26T07:43:03.861Z,12.10
2022-10-26T07:45:30.927Z,12.10
2022-10-26T07:47:58.099Z,12.20
2022-10-26T07:50:25.271Z,12.30
2022-10-26T07:52:52.673Z,12.20
2022-10-26T07:55:20.336Z,12.30
2022-10-26T07:57:49.770Z,12.30
2022-10-26T08:00:21.774Z,12.40
2022-10-26T08:02:48.920Z,12.40
2022-10-26T08:05:16.048Z,12.40
2022-10-26T08:07:46.122Z,12.50
2022-10-26T08:10:13.995Z,12.50
2022-10-26T08:12:41.565Z,12.50
2022-10-26T08:15:09.452Z,12.50
2022-10-26T08:17:36.442Z,12.60
2022-10-26T08:20:05.781Z,12.60
2022-10-26T08:22:34.991Z,12.60
2022-10-26T08:25:02.122Z,12.60
2022-10-26T08:27:29.062Z,12.70
2022-10-26T08:29:56.041Z,12.70
2022-10-26T08:32:25.662Z,12.80
2022-10-26T08:34:52.891Z,12.80
2022-10-26T08:37:19.884Z,12.70
2022-10-26T08:39:49.195Z,12.70
2022-10-26T08:42:25.354Z,12.70
2022-10-26T08:44:58.553Z,12.80
2022-10-26T08:47:29.187Z,13.10
2022-10-26T08:50:02.156Z,13.30
2022-10-26T08:53:02.383Z,13.60
2022-10-26T08:55:33.314Z,13.80
2022-10-26T08:58:02.188Z,13.90
2022-10-26T09:00:30.591Z,13.70
2022-10-26T09:02:57.551Z,13.70
2022-10-26T09:05:39.113Z,13.70
2022-10-26T09:08:05.989Z,13.60
2022-10-26T09:10:40.878Z,13.50
2022-10-26T09:13:11.177Z,13.50
2022-10-26T09:15:44.393Z,13.50
2022-10-26T09:18:20.553Z,13.50
2022-10-26T09:21:07.824Z,13.40
2022-10-26T09:23:45.477Z,13.40
2022-10-26T09:26:14.587Z,13.40
2022-10-26T09:28:41.924Z,13.40
2022-10-26T09:31:13.395Z,13.10
2022-10-26T09:33:40.771Z,12.80
2022-10-26T09:36:11.977Z,12.60
2022-10-26T09:38:51.349Z,12.40
2022-10-26T09:41:29.567Z,12.40
2022-10-26T09:44:17.608Z,12.30
2022-10-26T09:47:04.521Z,12.20
2022-10-26T09:49:41.513Z,12.20
2022-10-26T09:52:08.697Z,12.20
2022-10-26T09:54:35.810Z,12.20
2022-10-26T09:57:02.846Z,12.20
2022-10-26T09:59:30.867Z,12.10
2022-10-26T10:01:58.544Z,12.20
2022-10-26T10:04:28.204Z,12.20
2022-10-26T10:07:01.287Z,12.20
2022-10-26T10:09:30.072Z,12.20
2022-10-26T10:11:58.982Z,12.30
2022-10-26T10:14:28.470Z,12.30
2022-10-26T10:17:00.157Z,12.40
2022-10-26T10:19:29.112Z,12.40
2022-10-26T10:21:58.569Z,12.40
2022-10-26T10:24:32.832Z,12.50
2022-10-26T10:27:04.342Z,12.50
2022-10-26T10:29:40.093Z,12.50
2022-10-26T10:32:14.383Z,12.60
2022-10-26T10:34:41.679Z,12.60
2022-10-26T10:37:22.690Z,12.70
2022-10-26T10:39:49.776Z,12.70
2022-10-26T10:42:26.054Z,12.90
2022-10-26T10:44:54.450Z,12.90
2022-10-26T10:47:26.150Z,12.90
2022-10-26T10:49:54.755Z,13.00
2022-10-26T10:52:26.302Z,13.00
2022-10-26T10:54:58.527Z,13.00
2022-10-26T10:57:31.527Z,13.00
2022-10-26T11:00:05.632Z,13.00
2022-10-26T11:02:34.703Z,13.10
2022-10-26T11:05:23.295Z,13.10
2022-10-26T11:08:06.036Z,13.10
2022-10-26T11:10:53.322Z,13.10
2022-10-26T11:13:40.228Z,13.10
2022-10-26T11:16:14.080Z,13.10
2022-10-26T11:18:49.134Z,13.20
2022-10-26T11:21:29.685Z,13.30
2022-10-26T11:24:15.153Z,13.40
2022-10-26T11:26:45.148Z,13.50
2022-10-26T11:29:26.687Z,13.60
2022-10-26T11:31:57.630Z,13.60
2022-10-26T11:34:24.811Z,13.60
2022-10-26T11:36:58.628Z,13.60
2022-10-26T11:39:38.866Z,13.50
2022-10-26T11:42:20.260Z,13.40
2022-10-26T11:44:55.963Z,13.40
2022-10-26T11:47:26.056Z,13.30
2022-10-26T11:50:04.080Z,13.40
2022-10-26T11:52:37.879Z,13.40
2022-10-26T11:55:05.127Z,13.40
2022-10-26T11:57:33.279Z,13.50
2022-10-26T12:00:20.697Z,13.60
2022-10-26T12:02:50.319Z,13.50
2022-10-26T12:05:20.554Z,13.50
2022-10-26T12:07:59.075Z,13.50
2022-10-26T12:10:28.256Z,13.60
2022-10-26T12:12:58.815Z,13.60
2022-10-26T12:16:04.417Z,13.80
2022-10-26T12:18:55.065Z,13.80
2022-10-26T12:21:30.617Z,13.80
2022-10-26T12:24:01.879Z,13.70
2022-10-26T12:26:28.863Z,13.60
2022-10-26T12:29:01.928Z,13.60
2022-10-26T12:31:38.032Z,13.50
2022-10-26T12:34:05.913Z,13.50
2022-10-26T12:36:50.974Z,13.50
2022-10-26T12:39:34.682Z,13.50
2022-10-26T12:42:04.460Z,13.50
2022-10-26T12:44:37.716Z,13.30
2022-10-26T12:47:05.364Z,13.20
2022-10-26T12:50:04.715Z,13.00
2022-10-26T12:52:33.532Z,12.90
2022-10-26T12:55:20.875Z,12.90
2022-10-26T12:58:03.199Z,12.90
2022-10-26T13:00:31.031Z,12.90
2022-10-26T13:03:09.878Z,12.90
2022-10-26T13:05:36.883Z,12.80
2022-10-26T13:08:06.276Z,12.90
2022-10-26T13:10:34.092Z,12.90
2022-10-26T13:13:02.307Z,12.90
2022-10-26T13:15:31.606Z,12.90
2022-10-26T13:18:07.665Z,13.00
2022-10-26T13:20:36.252Z,13.00
2022-10-26T13:23:13.385Z,13.00
2022-10-26T13:25:40.400Z,13.00
2022-10-26T13:28:32.183Z,13.10
2022-10-26T13:30:59.174Z,13.10
2022-10-26T13:33:34.168Z,13.10
2022-10-26T13:36:02.819Z,13.10
2022-10-26T13:38:32.212Z,13.10
2022-10-26T13:41:03.907Z,13.10
2022-10-26T13:43:30.896Z,13.10
2022-10-26T13:46:01.447Z,13.10
2022-10-26T13:48:36.159Z,13.00
2022-10-26T13:51:05.422Z,13.00
2022-10-26T13:53:42.173Z,13.00
2022-10-26T13:56:27.843Z,13.00
2022-10-26T13:59:05.969Z,13.00
2022-10-26T14:01:33.178Z,13.00
2022-10-26T14:04:00.265Z,13.00
2022-10-26T14:06:38.109Z,12.90
2022-10-26T14:09:06.937Z,12.90
2022-10-26T14:11:43.102Z,12.90
2022-10-26T14:14:21.839Z,12.90
2022-10-26T14:16:49.930Z,12.80
2022-10-26T14:19:27.838Z,12.90
2022-10-26T14:21:55.312Z,12.80
2022-10-26T14:24:35.808Z,12.80
2022-10-26T14:27:19.596Z,12.80
2022-10-26T14:29:58.553Z,12.80
2022-10-26T14:32:36.767Z,12.70
2022-10-26T14:35:03.725Z,12.70
2022-10-26T14:37:51.140Z,12.70
2022-10-26T14:40:24.324Z,12.70
2022-10-26T14:42:53.302Z,12.60
2022-10-26T14:45:29.614Z,12.60
2022-10-26T14:48:04.742Z,12.60
2022-10-26T14:50:32.217Z,12.60
2022-10-26T14:53:13.782Z,12.60
2022-10-26T14:55:48.379Z,12.60
2022-10-26T15:01:13.288Z,12.60
2022-10-26T15:03:41.153Z,12.60
2022-10-26T15:06:28.592Z,12.50
2022-10-26T15:08:57.484Z,12.50
2022-10-26T15:11:25.090Z,12.50
2022-10-26T15:13:52.361Z,12.50
2022-10-26T15:16:23.930Z,12.50
2022-10-26T15:18:52.778Z,12.50
2022-10-26T15:21:28.639Z,12.50
2022-10-26T15:23:56.196Z,12.50
2022-10-26T15:26:23.479Z,12.50
2022-10-26T15:28:50.528Z,12.50
2022-10-26T15:31:17.392Z,12.50
2022-10-26T15:34:04.325Z,12.50
2022-10-26T15:36:32.558Z,12.50
2022-10-26T15:38:59.772Z,12.50
2022-10-26T15:41:28.884Z,12.50
2022-10-26T15:43:59.581Z,12.40
2022-10-26T15:46:29.922Z,12.40
2022-10-26T15:48:58.033Z,12.40
2022-10-26T15:51:25.610Z,12.40
2022-10-26T15:53:52.701Z,12.30
2022-10-26T15:56:21.444Z,12.30
2022-10-26T15:58:48.398Z,12.20
2022-10-26T16:01:19.853Z,12.20
2022-10-26T16:03:47.225Z,12.10
2022-10-26T16:06:16.378Z,12.10
2022-10-26T16:08:47.740Z,12.10
2022-10-26T16:11:14.708Z,12.10
2022-10-26T16:13:42.275Z,12.10
2022-10-26T16:16:27.861Z,12.10
2022-10-26T16:19:11.675Z,12.10
2022-10-26T16:21:42.929Z,12.10
2022-10-26T16:24:09.870Z,12.10
2022-10-26T16:26:36.907Z,12.10
2022-10-26T16:29:03.980Z,12.10
2022-10-26T16:31:30.956Z,12.10
2022-10-26T16:34:00.350Z,12.10
2022-10-26T16:36:33.199Z,12.10
2022-10-26T16:41:33.224Z,12.20
2022-10-26T16:44:00.192Z,12.20
2022-10-26T16:46:27.146Z,12.20
2022-10-26T16:48:54.154Z,12.20
2022-10-26T16:51:22.702Z,12.20
2022-10-26T16:53:51.310Z,12.20
2022-10-26T16:56:20.085Z,12.20
2022-10-26T16:58:47.033Z,12.30
2022-10-26T17:01:18.236Z,12.30
2022-10-26T17:03:46.303Z,12.30
2022-10-26T17:06:13.457Z,12.30
2022-10-26T17:08:40.465Z,12.30
2022-10-26T17:11:12.005Z,12.30
2022-10-26T17:13:40.684Z,12.30
2022-10-26T17:16:12.318Z,12.30
2022-10-26T17:18:41.273Z,12.30
2022-10-26T17:21:08.679Z,12.20
2022-10-26T17:23:35.701Z,12.30
2022-10-26T17:26:03.291Z,12.30
2022-10-26T17:28:30.753Z,12.20
2022-10-26T17:31:09.828Z,12.30
2022-10-26T17:33:37.599Z,12.20
2022-10-26T17:36:05.933Z,12.30
2022-10-26T17:38:37.483Z,12.20
2022-10-26T17:41:11.952Z,12.20
2022-10-26T17:43:40.566Z,12.20
2022-10-26T17:46:09.756Z,12.20
2022-10-26T17:48:37.737Z,12.20
2022-10-26T17:51:06.835Z,12.10
2022-10-26T17:53:33.798Z,12.20
2022-10-26T17:56:02.212Z,12.10
2022-10-26T17:58:29.985Z,12.10
2022-10-26T18:01:00.450Z,12.10
2022-10-26T18:03:27.704Z,12.10
2022-10-26T18:05:56.249Z,12.10
2022-10-26T18:08:23.513Z,12.10
2022-10-26T18:10:51.426Z,12.00
2022-10-26T18:13:18.389Z,12.00
2022-10-26T18:15:45.513Z,12.00
2022-10-26T18:18:12.999Z,12.00
2022-10-26T18:20:42.154Z,12.00
2022-10-26T18:23:09.199Z,12.00
2022-10-26T18:25:36.750Z,12.00
2022-10-26T18:28:04.250Z,11.90
2022-10-26T18:30:31.435Z,11.90
2022-10-26T18:32:58.367Z,11.90
2022-10-26T18:35:25.358Z,11.80
2022-10-26T18:37:52.754Z,11.80
2022-10-26T18:40:20.035Z,11.80
2022-10-26T18:42:49.604Z,11.70
2022-10-26T18:45:16.805Z,11.70
2022-10-26T18:47:43.914Z,11.70
2022-10-26T18:50:11.057Z,11.70
2022-10-26T18:52:38.111Z,11.70
2022-10-26T18:55:06.774Z,11.70
2022-10-26T18:57:33.763Z,11.60
2022-10-26T19:00:00.986Z,11.60
2022-10-26T19:02:28.382Z,11.60
2022-10-26T19:04:58.850Z,11.60
2022-10-26T19:07:26.175Z,11.60
2022-10-26T19:10:14.434Z,11.70
2022-10-26T19:12:41.393Z,11.70
2022-10-26T19:15:08.617Z,11.70
2022-10-26T19:17:35.842Z,11.70
2022-10-26T19:20:02.797Z,11.70
2022-10-26T19:22:29.865Z,11.60
2022-10-26T19:24:57.290Z,11.60
2022-10-26T19:27:24.264Z,11.60
2022-10-26T19:29:56.900Z,11.60
2022-10-26T19:32:29.950Z,11.60
2022-10-26T19:35:03.878Z,11.60
2022-10-26T19:37:36.273Z,11.60
2022-10-26T19:40:05.133Z,11.60
2022-10-26T19:42:32.219Z,11.60
2022-10-26T19:45:01.822Z,11.60
2022-10-26T19:47:28.820Z,11.60
2022-10-26T19:49:56.322Z,11.60
2022-10-26T19:52:23.224Z,11.50
2022-10-26T19:54:50.355Z,11.50
2022-10-26T19:57:17.259Z,11.50
2022-10-26T19:59:44.350Z,11.50
2022-10-26T20:02:11.251Z,11.50
2022-10-26T20:04:40.353Z,11.50
2022-10-26T20:07:07.367Z,11.50
2022-10-26T20:09:34.569Z,11.50
2022-10-26T20:12:02.091Z,11.50
2022-10-26T20:14:29.059Z,11.40
2022-10-26T20:16:56.047Z,11.50
2022-10-26T20:19:23.707Z,11.50
2022-10-26T20:21:50.659Z,11.60
2022-10-26T20:24:17.676Z,11.60
2022-10-26T20:26:44.761Z,11.60
2022-10-26T20:29:11.745Z,11.60
2022-10-26T20:31:38.778Z,11.60
2022-10-26T20:34:06.577Z,11.60
2022-10-26T20:36:33.543Z,11.60
2022-10-26T20:39:00.927Z,11.60
2022-10-26T20:41:27.895Z,11.60
2022-10-26T20:43:58.038Z,11.60
2022-10-26T20:46:27.116Z,11.60
2022-10-26T20:48:54.717Z,11.60
2022-10-26T20:51:26.443Z,11.60
2022-10-26T20:54:04.094Z,11.60
2022-10-26T20:56:32.035Z,11.60
2022-10-26T20:59:00.569Z,11.60
2022-10-26T21:01:27.819Z,11.50
2022-10-26T21:03:55.757Z,11.50
2022-10-26T21:06:26.348Z,11.50
2022-10-26T21:08:54.204Z,11.50
2022-10-26T21:11:22.314Z,11.50
2022-10-26T21:13:49.876Z,11.60
2022-10-26T21:16:17.308Z,11.60
2022-10-26T21:18:44.649Z,11.60
2022-10-26T21:21:12.669Z,11.60
2022-10-26T21:23:40.466Z,11.50
2022-10-26T21:26:08.512Z,11.50
2022-10-26T21:28:37.174Z,11.50
2022-10-26T21:31:04.876Z,11.40
2022-10-26T21:33:35.643Z,11.40
2022-10-26T21:36:03.480Z,11.40
2022-10-26T21:38:31.446Z,11.30
2022-10-26T21:41:05.599Z,11.30
2022-10-26T21:43:37.974Z,11.30
2022-10-26T21:46:05.229Z,11.30
2022-10-26T21:48:33.108Z,11.20
2022-10-26T21:51:07.461Z,11.20
2022-10-26T21:53:35.088Z,11.20
2022-10-26T21:56:06.413Z,11.20
2022-10-26T21:58:34.111Z,11.10
2022-10-26T22:01:08.403Z,11.10
2022-10-26T22:03:36.291Z,11.10
2022-10-26T22:06:04.278Z,11.10
2022-10-26T22:08:31.277Z,11.10
2022-10-26T22:10:58.946Z,11.10
2022-10-26T22:13:26.544Z,11.10
2022-10-26T22:16:04.562Z,11.20
2022-10-26T22:18:34.119Z,11.10
2022-10-26T22:21:01.153Z,11.20
2022-10-26T22:23:28.690Z,11.20
2022-10-26T22:26:00.646Z,11.20
2022-10-26T22:28:27.643Z,11.20
2022-10-26T22:30:54.579Z,11.20
2022-10-26T22:33:22.298Z,11.30
2022-10-26T22:35:49.284Z,11.30
2022-10-26T22:38:16.922Z,11.30
2022-10-26T22:40:44.477Z,11.30
2022-10-26T22:43:12.271Z,11.30
2022-10-26T22:45:39.227Z,11.20
2022-10-26T22:50:38.767Z,11.30
2022-10-26T22:53:05.714Z,11.20
2022-10-26T22:55:32.743Z,11.30
2022-10-26T22:57:59.793Z,11.20
2022-10-26T23:00:26.883Z,11.20
2022-10-26T23:02:53.787Z,11.20
2022-10-26T23:05:20.770Z,11.20
2022-10-26T23:07:48.008Z,11.20
2022-10-26T23:10:15.319Z,11.20
2022-10-26T23:12:42.289Z,11.20
2022-10-26T23:15:11.142Z,11.20
2022-10-26T23:17:38.183Z,11.30
2022-10-26T23:20:06.015Z,11.20
2022-10-26T23:22:32.923Z,11.20
2022-10-26T23:25:00.075Z,11.20
2022-10-26T23:27:27.180Z,11.20
2022-10-26T23:29:55.306Z,11.20
2022-10-26T23:32:22.923Z,11.20
2022-10-26T23:34:49.878Z,11.20
2022-10-26T23:37:24.035Z,11.20
2022-10-26T23:39:51.640Z,11.20
2022-10-26T23:42:19.240Z,11.20
2022-10-26T23:44:46.851Z,11.20
2022-10-26T23:47:13.738Z,11.20
2022-10-26T23:49:40.697Z,11.20
2022-10-26T23:52:07.599Z,11.20
2022-10-26T23:54:34.660Z,11.20
2022-10-26T23:57:01.554Z,11.20
2022-10-26T23:59:29.243Z,11.20
